X  Close Metar Aviation Weather Data        LEGR Granada
Temperature
20°C Temperature
7°C Dewpoint
43% Humidity



Wind
0 KM/H
0 MPH
0 M/S
0 KTS



Calm
N
Current Conditions

Mostly Clear Mostly Clear
Pressure 1013 (hPa) - 29.91 (inHg)
Visibility 30 (mile) - 48 (km)
Airport
Airport-code LEGR

Location: Granada
Distance: 56 (km)

Metar:
METAR LEGR 271930Z 00000KT 9999 FEW100 20/07 Q1015

Time: 27-09-2020 21:30 CEST